createdAt,value
2016-11-01T00:00:13.062Z,8.19
2016-11-01T00:00:54.520Z,8.16
2016-11-01T00:01:36.013Z,8.12
2016-11-01T00:02:17.752Z,8.15
2016-11-01T00:02:59.452Z,8.15
2016-11-01T00:03:41.065Z,8.15
2016-11-01T00:04:22.840Z,8.2
2016-11-01T00:05:04.605Z,8.19
2016-11-01T00:07:19.865Z,8.12
2016-11-01T00:09:09.272Z,8.19
2016-11-01T00:09:50.891Z,8.12
2016-11-01T00:11:45.585Z,8.23
2016-11-01T00:12:27.335Z,8.11
2016-11-01T00:13:08.932Z,8.16
2016-11-01T00:15:08.837Z,8.07
2016-11-01T00:15:50.306Z,8.12
2016-11-01T00:16:31.941Z,8.11
2016-11-01T00:18:26.493Z,8.15
2016-11-01T00:20:26.523Z,8.15
2016-11-01T00:21:08.166Z,8.08
2016-11-01T00:21:49.917Z,8.08
2016-11-01T00:22:31.182Z,8.19
2016-11-01T00:24:31.239Z,8.08
2016-11-01T00:25:12.938Z,8.07
2016-11-01T00:25:54.569Z,8.1
2016-11-01T00:26:36.169Z,8.12
2016-11-01T00:28:25.626Z,8.12
2016-11-01T00:29:07.173Z,8.04
2016-11-01T00:29:48.799Z,8.05
2016-11-01T00:30:30.561Z,8.11
2016-11-01T00:31:12.326Z,8.1
2016-11-01T00:33:06.937Z,8.07
2016-11-01T00:33:48.626Z,8.18
2016-11-01T00:34:30.347Z,8.04
2016-11-01T00:35:12.040Z,8.07
2016-11-01T00:35:53.625Z,8.1
2016-11-01T00:37:48.199Z,8.1
2016-11-01T00:38:29.956Z,8.02
2016-11-01T00:39:11.604Z,8.08
2016-11-01T00:39:53.240Z,8.11
2016-11-01T00:40:34.975Z,8.02
2016-11-01T00:41:16.604Z,8.08
2016-11-01T00:43:11.267Z,8.15
2016-11-01T00:43:52.979Z,8.16
2016-11-01T00:44:34.682Z,8.19
2016-11-01T00:45:16.264Z,8.15
2016-11-01T00:46:55.211Z,8.08
2016-11-01T00:47:36.948Z,8.11
2016-11-01T00:49:26.316Z,8.04
2016-11-01T00:50:07.938Z,8.15
2016-11-01T00:50:49.570Z,8.15
2016-11-01T00:51:31.209Z,8.15
2016-11-01T00:53:20.619Z,8.1
2016-11-01T00:54:02.407Z,8.02
2016-11-01T00:54:44.006Z,8.01
2016-11-01T00:55:25.727Z,8.04
2016-11-01T00:56:07.483Z,8.08
2016-11-01T00:56:49.131Z,8.08
2016-11-01T00:57:30.639Z,8.01
2016-11-01T00:59:30.529Z,8.01
2016-11-01T01:01:25.025Z,8.04
2016-11-01T01:02:06.653Z,8
2016-11-01T01:02:48.356Z,8.01
2016-11-01T01:03:30.083Z,8.05
2016-11-01T01:04:11.742Z,7.97
2016-11-01T01:04:53.573Z,7.93
2016-11-01T01:07:08.803Z,7.93
2016-11-01T01:08:58.099Z,7.92
2016-11-01T01:09:39.889Z,7.93
2016-11-01T01:10:21.428Z,7.98
2016-11-01T01:11:03.250Z,7.95
2016-11-01T01:11:44.909Z,7.98
2016-11-01T01:12:26.665Z,7.97
2016-11-01T01:13:08.315Z,8.05
2016-11-01T01:13:50.077Z,7.97
2016-11-01T01:15:29.139Z,7.95
2016-11-01T01:16:10.556Z,8.05
2016-11-01T01:16:52.102Z,7.9
2016-11-01T01:18:46.655Z,8.11
2016-11-01T01:19:28.379Z,8.05
2016-11-01T01:20:10.095Z,8.05
2016-11-01T01:20:51.919Z,8
2016-11-01T01:21:33.696Z,7.97
2016-11-01T01:22:15.371Z,8.05
2016-11-01T01:22:57.046Z,8.02
2016-11-01T01:23:38.835Z,8.04
2016-11-01T01:24:20.566Z,7.95
2016-11-01T01:26:20.664Z,8.07
2016-11-01T01:27:02.402Z,7.98
2016-11-01T01:28:57.085Z,7.92
2016-11-01T01:30:46.466Z,7.98
2016-11-01T01:31:28.138Z,8.02
2016-11-01T01:32:09.843Z,7.9
2016-11-01T01:32:51.475Z,7.92
2016-11-01T01:34:46.171Z,8.01
2016-11-01T01:35:27.989Z,8.04
2016-11-01T01:36:09.614Z,7.95
2016-11-01T01:36:51.290Z,7.95
2016-11-01T01:38:51.214Z,7.95
2016-11-01T01:40:40.687Z,7.89
2016-11-01T01:41:22.065Z,7.93
2016-11-01T01:42:03.719Z,7.97
2016-11-01T01:42:45.376Z,7.95
2016-11-01T01:43:26.915Z,7.92
2016-11-01T01:44:08.777Z,7.95
2016-11-01T01:44:50.443Z,7.93
2016-11-01T01:46:29.551Z,7.92
2016-11-01T01:48:18.894Z,7.89
2016-11-01T01:49:00.604Z,7.97
2016-11-01T01:49:42.307Z,7.92
2016-11-01T01:50:23.933Z,7.98
2016-11-01T01:52:18.725Z,7.95
2016-11-01T01:53:00.517Z,7.95
2016-11-01T01:53:42.212Z,8.07
2016-11-01T01:54:23.902Z,7.92
2016-11-01T01:56:39.390Z,8.01
2016-11-01T01:57:21.093Z,7.95
2016-11-01T01:58:02.806Z,7.95
2016-11-01T01:58:44.533Z,7.95
2016-11-01T01:59:26.166Z,7.95
2016-11-01T02:00:07.935Z,7.9
2016-11-01T02:00:49.655Z,7.9
2016-11-01T02:01:30.786Z,7.95
2016-11-01T02:02:11.324Z,7.9
2016-11-01T02:02:51.856Z,7.98
2016-11-01T02:03:32.389Z,7.9
2016-11-01T02:04:12.925Z,7.92
2016-11-01T02:04:53.462Z,7.95
2016-11-01T02:05:34.003Z,7.87
2016-11-01T02:06:14.537Z,7.97
2016-11-01T02:06:55.064Z,7.97
2016-11-01T02:07:35.601Z,7.95
2016-11-01T02:08:16.151Z,7.95
2016-11-01T02:08:56.683Z,7.95
2016-11-01T02:09:37.207Z,8
2016-11-01T02:10:17.751Z,7.97
2016-11-01T02:10:58.284Z,7.89
2016-11-01T02:11:38.815Z,7.9
2016-11-01T02:12:19.356Z,7.9
2016-11-01T02:12:59.894Z,7.89
2016-11-01T02:13:40.433Z,7.93
2016-11-01T02:14:20.975Z,7.83
2016-11-01T02:16:15.071Z,7.86
2016-11-01T02:16:55.610Z,7.82
2016-11-01T02:17:36.153Z,7.87
2016-11-01T02:18:16.687Z,7.86
2016-11-01T02:18:57.215Z,7.85
2016-11-01T02:19:37.758Z,7.89
2016-11-01T02:20:18.294Z,7.85
2016-11-01T02:20:58.828Z,7.9
2016-11-01T02:21:39.364Z,7.85
2016-11-01T02:22:19.908Z,7.87
2016-11-01T02:23:00.439Z,7.85
2016-11-01T02:23:40.967Z,7.85
2016-11-01T02:24:21.497Z,7.86
2016-11-01T02:25:02.040Z,7.86
2016-11-01T02:25:42.581Z,7.86
2016-11-01T02:26:23.111Z,7.83
2016-11-01T02:27:03.658Z,7.82
2016-11-01T02:27:44.190Z,7.8
2016-11-01T02:28:24.720Z,7.83
2016-11-01T02:29:05.239Z,7.79
2016-11-01T02:29:45.784Z,7.8
2016-11-01T02:30:26.322Z,7.79
2016-11-01T02:31:06.856Z,7.79
2016-11-01T02:31:47.393Z,7.79
2016-11-01T02:32:27.924Z,7.75
2016-11-01T02:33:08.452Z,7.74
2016-11-01T02:33:48.989Z,7.74
2016-11-01T02:34:29.536Z,7.74
2016-11-01T02:35:10.071Z,7.75
2016-11-01T02:35:50.607Z,7.77
2016-11-01T02:36:31.123Z,7.77
2016-11-01T02:37:11.664Z,7.75
2016-11-01T02:37:52.204Z,7.77
2016-11-01T02:38:32.738Z,7.77
2016-11-01T02:39:13.266Z,7.77
2016-11-01T02:39:53.813Z,7.79
2016-11-01T02:40:34.334Z,7.82
2016-11-01T02:41:14.868Z,7.82
2016-11-01T02:41:55.392Z,7.75
2016-11-01T02:42:35.907Z,7.82
2016-11-01T02:43:16.440Z,7.79
2016-11-01T02:43:56.972Z,7.83
2016-11-01T02:44:37.511Z,7.77
2016-11-01T02:45:18.044Z,7.8
2016-11-01T02:45:58.585Z,7.8
2016-11-01T02:46:39.120Z,7.86
2016-11-01T02:47:19.657Z,7.85
2016-11-01T02:48:00.200Z,7.79
2016-11-01T02:48:40.723Z,7.77
2016-11-01T02:49:21.263Z,7.8
2016-11-01T02:50:01.794Z,7.83
2016-11-01T02:50:42.341Z,7.79
2016-11-01T02:51:22.893Z,7.79
2016-11-01T02:52:03.439Z,7.77
2016-11-01T02:52:43.977Z,7.72
2016-11-01T02:53:24.525Z,7.75
2016-11-01T02:54:05.054Z,7.75
2016-11-01T02:54:45.586Z,7.74
2016-11-01T02:55:26.118Z,7.74
2016-11-01T02:56:06.651Z,7.74
2016-11-01T02:56:47.185Z,7.71
2016-11-01T02:57:27.725Z,7.74
2016-11-01T02:58:08.268Z,7.71
2016-11-01T02:58:48.792Z,7.71
2016-11-01T02:59:29.332Z,7.72
2016-11-01T03:00:09.859Z,7.68
2016-11-01T03:00:50.412Z,7.71
2016-11-01T03:01:30.953Z,7.67
2016-11-01T03:02:11.486Z,7.74
2016-11-01T03:02:52.021Z,7.68
2016-11-01T03:03:32.551Z,7.63
2016-11-01T03:04:13.080Z,7.64
2016-11-01T03:04:53.623Z,7.68
2016-11-01T03:05:34.154Z,7.63
2016-11-01T03:06:14.707Z,7.6
2016-11-01T03:06:55.253Z,7.64
2016-11-01T03:07:35.788Z,7.53
2016-11-01T03:08:16.334Z,7.57
2016-11-01T03:08:56.872Z,7.52
2016-11-01T03:09:37.416Z,7.52
2016-11-01T03:10:17.950Z,7.48
2016-11-01T03:10:58.483Z,7.55
2016-11-01T03:11:39.026Z,7.55
2016-11-01T03:12:19.551Z,7.57
2016-11-01T03:13:00.089Z,7.49
2016-11-01T03:13:40.626Z,7.57
2016-11-01T03:14:21.155Z,7.55
2016-11-01T03:15:01.694Z,7.53
2016-11-01T03:15:42.238Z,7.57
2016-11-01T03:16:22.770Z,7.55
2016-11-01T03:17:03.308Z,7.52
2016-11-01T03:17:43.850Z,7.52
2016-11-01T03:18:24.395Z,7.53
2016-11-01T03:19:04.932Z,7.52
2016-11-01T03:19:45.467Z,7.52
2016-11-01T03:20:25.993Z,7.55
2016-11-01T03:21:06.536Z,7.52
2016-11-01T03:21:47.066Z,7.55
2016-11-01T03:22:27.607Z,7.52
2016-11-01T03:23:08.145Z,7.53
2016-11-01T03:23:48.668Z,7.5
2016-11-01T03:24:29.208Z,7.52
2016-11-01T03:25:09.741Z,7.48
2016-11-01T03:25:50.276Z,7.55
2016-11-01T03:26:30.824Z,7.57
2016-11-01T03:27:11.358Z,7.52
2016-11-01T03:27:51.879Z,7.49
2016-11-01T03:28:32.415Z,7.57
2016-11-01T03:29:12.944Z,7.55
2016-11-01T03:29:53.474Z,7.55
2016-11-01T03:30:34.016Z,7.5
2016-11-01T03:31:14.557Z,7.53
2016-11-01T03:31:55.088Z,7.53
2016-11-01T03:32:35.629Z,7.46
2016-11-01T03:33:16.155Z,7.49
2016-11-01T03:33:56.697Z,7.52
2016-11-01T03:34:37.236Z,7.6
2016-11-01T03:35:17.799Z,7.52
2016-11-01T03:35:58.314Z,7.53
2016-11-01T03:36:38.857Z,7.43
2016-11-01T03:37:19.399Z,7.49
2016-11-01T03:37:59.938Z,7.53
2016-11-01T03:38:40.459Z,7.57
2016-11-01T03:39:20.994Z,7.45
2016-11-01T03:40:01.535Z,7.5
2016-11-01T03:40:42.082Z,7.49
2016-11-01T03:41:22.613Z,7.5
2016-11-01T03:42:03.147Z,7.52
2016-11-01T03:42:43.658Z,7.5
2016-11-01T03:43:24.203Z,7.5
2016-11-01T03:44:04.729Z,7.5
2016-11-01T03:44:45.255Z,7.55
2016-11-01T03:45:25.798Z,7.48
2016-11-01T03:46:06.330Z,7.5
2016-11-01T03:46:46.858Z,7.45
2016-11-01T03:47:27.406Z,7.46
2016-11-01T03:48:07.929Z,7.53
2016-11-01T03:48:48.468Z,7.45
2016-11-01T03:49:29.006Z,7.45
2016-11-01T03:50:09.553Z,7.42
2016-11-01T03:50:50.084Z,7.48
2016-11-01T03:51:30.611Z,7.39
2016-11-01T03:52:11.126Z,7.4
2016-11-01T03:52:51.661Z,7.42
2016-11-01T03:53:32.197Z,7.5
2016-11-01T03:54:12.725Z,7.48
2016-11-01T03:54:53.271Z,7.31
2016-11-01T03:55:33.810Z,7.37
2016-11-01T03:56:14.344Z,7.31
2016-11-01T03:56:54.875Z,7.42
2016-11-01T03:57:35.407Z,7.32
2016-11-01T03:58:15.936Z,7.39
2016-11-01T03:58:56.479Z,7.37
2016-11-01T03:59:37.014Z,7.32
2016-11-01T04:00:17.547Z,7.3
2016-11-01T04:00:58.085Z,7.31
2016-11-01T04:01:38.626Z,7.25
2016-11-01T04:02:19.158Z,7.35
2016-11-01T04:02:59.690Z,7.31
2016-11-01T04:03:40.235Z,7.32
2016-11-01T04:04:20.769Z,7.3
2016-11-01T04:05:01.301Z,7.28
2016-11-01T04:05:41.835Z,7.35
2016-11-01T04:06:22.382Z,7.35
2016-11-01T04:07:02.936Z,7.25
2016-11-01T04:07:43.480Z,7.32
2016-11-01T04:08:24.012Z,7.27
2016-11-01T04:09:04.547Z,7.24
2016-11-01T04:09:45.073Z,7.24
2016-11-01T04:10:25.616Z,7.27
2016-11-01T04:11:06.159Z,7.24
2016-11-01T04:11:46.706Z,7.21
2016-11-01T04:12:27.247Z,7.2
2016-11-01T04:13:07.781Z,7.17
2016-11-01T04:13:48.323Z,7.25
2016-11-01T04:14:28.849Z,7.3
2016-11-01T04:15:09.392Z,7.24
2016-11-01T04:15:49.930Z,7.17
2016-11-01T04:16:30.479Z,7.2
2016-11-01T04:17:11.000Z,7.31
2016-11-01T04:17:51.541Z,7.2
2016-11-01T04:18:32.078Z,7.2
2016-11-01T04:19:12.615Z,7.2
2016-11-01T04:19:53.148Z,7.28
2016-11-01T04:20:33.686Z,7.2
2016-11-01T04:21:14.216Z,7.28
2016-11-01T04:21:54.751Z,7.2
2016-11-01T04:22:35.280Z,7.25
2016-11-01T04:23:16.038Z,7.3
2016-11-01T04:23:56.564Z,7.31
2016-11-01T04:24:37.090Z,7.28
2016-11-01T04:25:17.629Z,7.25
2016-11-01T04:25:58.174Z,7.27
2016-11-01T04:26:38.723Z,7.2
2016-11-01T04:27:19.261Z,7.27
2016-11-01T04:27:59.801Z,7.23
2016-11-01T04:28:40.339Z,7.17
2016-11-01T04:29:21.041Z,7.2
2016-11-01T04:30:01.572Z,7.2
2016-11-01T04:30:42.096Z,7.16
2016-11-01T04:31:22.639Z,7.17
2016-11-01T04:32:03.169Z,7.24
2016-11-01T04:32:43.690Z,7.2
2016-11-01T04:33:24.231Z,7.2
2016-11-01T04:34:04.781Z,7.21
2016-11-01T04:34:45.311Z,7.2
2016-11-01T04:35:26.004Z,7.21
2016-11-01T04:36:06.532Z,7.2
2016-11-01T04:36:47.067Z,7.25
2016-11-01T04:37:27.590Z,7.23
2016-11-01T04:38:08.133Z,7.23
2016-11-01T04:38:48.644Z,7.2
2016-11-01T04:39:29.193Z,7.23
2016-11-01T04:40:09.725Z,7.27
2016-11-01T04:40:50.266Z,7.3
2016-11-01T04:41:30.801Z,7.25
2016-11-01T04:42:11.330Z,7.2
2016-11-01T04:42:51.860Z,7.17
2016-11-01T04:43:32.399Z,7.25
2016-11-01T04:44:12.946Z,7.24
2016-11-01T04:44:53.477Z,7.25
2016-11-01T04:45:34.020Z,7.25
2016-11-01T04:46:14.554Z,7.23
2016-11-01T04:46:55.081Z,7.17
2016-11-01T04:47:35.614Z,7.21
2016-11-01T04:48:16.155Z,7.28
2016-11-01T04:48:56.696Z,7.17
2016-11-01T04:49:37.246Z,7.2
2016-11-01T04:50:17.779Z,7.3
2016-11-01T04:50:58.306Z,7.2
2016-11-01T04:51:38.821Z,7.24
2016-11-01T04:52:19.375Z,7.24
2016-11-01T04:52:59.901Z,7.16
2016-11-01T04:53:40.439Z,7.21
2016-11-01T04:54:20.967Z,7.2
2016-11-01T04:55:01.500Z,7.27
2016-11-01T04:55:42.028Z,7.2
2016-11-01T04:56:22.562Z,7.2
2016-11-01T04:57:03.102Z,7.2
2016-11-01T04:57:43.643Z,7.23
2016-11-01T04:58:24.181Z,7.24
2016-11-01T04:59:04.705Z,7.24
2016-11-01T04:59:45.233Z,7.2
2016-11-01T05:00:25.773Z,7.25
2016-11-01T05:01:06.311Z,7.15
2016-11-01T05:01:46.854Z,7.15
2016-11-01T05:02:27.379Z,7.32
2016-11-01T05:03:07.996Z,7.09
2016-11-01T05:03:48.531Z,7.23
2016-11-01T05:04:29.082Z,7.27
2016-11-01T05:05:09.611Z,7.23
2016-11-01T05:05:50.158Z,7.15
2016-11-01T05:06:30.711Z,7.3
2016-11-01T05:07:11.238Z,7.13
2016-11-01T05:07:51.770Z,7.16
2016-11-01T05:08:32.313Z,7.17
2016-11-01T05:09:12.856Z,7.17
2016-11-01T05:09:53.374Z,7.31
2016-11-01T05:10:34.001Z,7.13
2016-11-01T05:11:14.533Z,7.2
2016-11-01T05:11:55.073Z,7.2
2016-11-01T05:12:35.610Z,7.2
2016-11-01T05:13:16.295Z,7.15
2016-11-01T05:13:56.860Z,7.23
2016-11-01T05:14:37.399Z,7.21
2016-11-01T05:15:17.933Z,7.16
2016-11-01T05:15:58.466Z,7.21
2016-11-01T05:16:38.992Z,7.25
2016-11-01T05:17:19.534Z,7.27
2016-11-01T05:18:00.128Z,7.23
2016-11-01T05:18:40.652Z,7.23
2016-11-01T05:19:21.202Z,7.2
2016-11-01T05:20:01.739Z,7.3
2016-11-01T05:20:42.288Z,7.24
2016-11-01T05:21:22.838Z,7.32
2016-11-01T05:22:03.383Z,7.3
2016-11-01T05:22:43.933Z,7.28
2016-11-01T05:23:24.472Z,7.3
2016-11-01T05:24:05.014Z,7.31
2016-11-01T05:24:45.549Z,7.24
2016-11-01T05:25:26.086Z,7.25
2016-11-01T05:26:06.622Z,7.16
2016-11-01T05:26:47.154Z,7.21
2016-11-01T05:27:27.688Z,7.17
2016-11-01T05:28:08.235Z,7.25
2016-11-01T05:28:48.760Z,7.21
2016-11-01T05:29:29.282Z,7.21
2016-11-01T05:30:09.804Z,7.17
2016-11-01T05:30:50.346Z,7.2
2016-11-01T05:31:30.883Z,7.23
2016-11-01T05:32:11.413Z,7.21
2016-11-01T05:32:51.948Z,7.16
2016-11-01T05:33:32.475Z,7.16
2016-11-01T05:34:13.009Z,7.24
2016-11-01T05:34:53.538Z,7.25
2016-11-01T05:35:34.084Z,7.31
2016-11-01T05:36:14.612Z,7.2
2016-11-01T05:36:55.153Z,7.23
2016-11-01T05:37:35.682Z,7.2
2016-11-01T05:38:16.214Z,7.23
2016-11-01T05:38:56.756Z,7.2
2016-11-01T05:39:37.295Z,7.24
2016-11-01T05:40:17.847Z,7.28
2016-11-01T05:40:58.395Z,7.17
2016-11-01T05:41:39.049Z,7.2
2016-11-01T05:42:19.590Z,7.16
2016-11-01T05:43:00.126Z,7.16
2016-11-01T05:43:40.649Z,7.23
2016-11-01T05:44:21.194Z,7.23
2016-11-01T05:45:01.725Z,7.2
2016-11-01T05:45:42.248Z,7.17
2016-11-01T05:46:22.770Z,7.1
2016-11-01T05:47:03.305Z,7.15
2016-11-01T05:47:43.835Z,7.13
2016-11-01T05:48:24.367Z,7.1
2016-11-01T05:49:04.916Z,7.21
2016-11-01T05:49:45.444Z,7.23
2016-11-01T05:50:25.984Z,7.17
2016-11-01T05:51:06.525Z,7.13
2016-11-01T05:51:47.070Z,7.1
2016-11-01T05:52:27.608Z,7.1
2016-11-01T05:53:08.134Z,7.09
2016-11-01T05:53:48.668Z,7.15
2016-11-01T05:54:29.195Z,7.15
2016-11-01T05:55:09.723Z,7.06
2016-11-01T05:55:50.261Z,7.05
2016-11-01T05:56:30.792Z,7.09
2016-11-01T05:57:11.317Z,7.06
2016-11-01T05:57:51.858Z,7.06
2016-11-01T05:58:32.408Z,7.07
2016-11-01T05:59:12.950Z,7.12
2016-11-01T05:59:53.491Z,7.06
2016-11-01T06:00:34.016Z,7.09
2016-11-01T06:01:14.552Z,7.07
2016-11-01T06:01:55.070Z,7.07
2016-11-01T06:02:35.610Z,7.06
2016-11-01T06:03:16.154Z,7.03
2016-11-01T06:03:56.689Z,6.98
2016-11-01T06:04:37.227Z,7.03
2016-11-01T06:05:17.756Z,6.94
2016-11-01T06:05:58.293Z,7.06
2016-11-01T06:06:38.826Z,6.99
2016-11-01T06:07:19.359Z,7.03
2016-11-01T06:07:59.901Z,6.95
2016-11-01T06:08:40.436Z,6.91
2016-11-01T06:09:20.961Z,6.97
2016-11-01T06:10:01.501Z,6.94
2016-11-01T06:10:42.043Z,6.97
2016-11-01T06:11:22.573Z,6.95
2016-11-01T06:12:03.109Z,6.92
2016-11-01T06:12:43.644Z,6.85
2016-11-01T06:13:24.186Z,6.87
2016-11-01T06:14:04.734Z,6.8
2016-11-01T06:14:45.271Z,6.89
2016-11-01T06:15:25.808Z,6.89
2016-11-01T06:16:06.329Z,6.87
2016-11-01T06:16:46.862Z,6.95
2016-11-01T06:17:27.399Z,6.91
2016-11-01T06:18:07.925Z,6.91
2016-11-01T06:18:48.449Z,6.98
2016-11-01T06:19:28.990Z,6.95
2016-11-01T06:20:09.523Z,6.99
2016-11-01T06:20:50.083Z,6.95
2016-11-01T06:21:30.622Z,6.94
2016-11-01T06:22:11.174Z,7.03
2016-11-01T06:22:51.723Z,6.97
2016-11-01T06:23:32.268Z,6.95
2016-11-01T06:24:12.806Z,7.02
2016-11-01T06:24:53.348Z,7.03
2016-11-01T06:25:33.882Z,6.98
2016-11-01T06:26:14.408Z,6.99
2016-11-01T06:26:54.949Z,6.95
2016-11-01T06:27:35.488Z,6.98
2016-11-01T06:28:16.036Z,6.98
2016-11-01T06:28:56.573Z,6.98
2016-11-01T06:29:37.115Z,7.03
2016-11-01T06:30:17.654Z,7.09
2016-11-01T06:30:58.204Z,7.05
2016-11-01T06:31:38.726Z,7.1
2016-11-01T06:32:19.295Z,7.05
2016-11-01T06:32:59.846Z,6.99
2016-11-01T06:33:40.366Z,7.07
2016-11-01T06:34:20.994Z,6.98
2016-11-01T06:35:01.544Z,7.02
2016-11-01T06:35:42.076Z,7.06
2016-11-01T06:36:22.610Z,7.05
2016-11-01T06:37:03.153Z,7.05
2016-11-01T06:37:43.710Z,7.16
2016-11-01T06:38:24.252Z,7.15
2016-11-01T06:39:04.773Z,7.1
2016-11-01T06:39:45.315Z,7.1
2016-11-01T06:40:25.846Z,7.12
2016-11-01T06:41:06.395Z,7.15
2016-11-01T06:41:46.932Z,7.15
2016-11-01T06:42:27.477Z,7.09
2016-11-01T06:43:08.017Z,7.1
2016-11-01T06:43:48.555Z,7.13
2016-11-01T06:44:29.091Z,7.09
2016-11-01T06:45:09.623Z,7.06
2016-11-01T06:45:50.159Z,7.09
2016-11-01T06:46:30.679Z,7.12
2016-11-01T06:47:11.217Z,7.12
2016-11-01T06:47:51.752Z,7.1
2016-11-01T06:48:32.297Z,7.12
2016-11-01T06:49:12.833Z,7.1
2016-11-01T06:49:53.357Z,7.17
2016-11-01T06:50:33.927Z,7.1
2016-11-01T06:51:14.440Z,7.15
2016-11-01T06:51:54.986Z,7.1
2016-11-01T06:52:35.527Z,7.17
2016-11-01T06:53:16.018Z,7.13
2016-11-01T06:53:56.539Z,7.12
2016-11-01T06:54:37.077Z,7.13
2016-11-01T06:55:17.613Z,7.13
2016-11-01T06:55:58.160Z,7.15
2016-11-01T06:56:38.697Z,7.12
2016-11-01T06:57:19.514Z,7.05
2016-11-01T06:58:00.063Z,7.03
2016-11-01T06:58:40.586Z,7.09
2016-11-01T06:59:21.117Z,6.95
2016-11-01T07:00:01.638Z,6.99
2016-11-01T07:00:42.166Z,6.91
2016-11-01T07:01:22.698Z,6.92
2016-11-01T07:02:03.243Z,7.02
2016-11-01T07:02:43.751Z,6.94
2016-11-01T07:03:24.286Z,6.98
2016-11-01T07:04:04.816Z,6.98
2016-11-01T07:04:45.335Z,6.91
2016-11-01T07:05:25.858Z,6.95
2016-11-01T07:06:06.389Z,6.99
2016-11-01T07:06:46.935Z,6.99
2016-11-01T07:07:27.477Z,6.98
2016-11-01T07:08:08.016Z,6.97
2016-11-01T07:08:48.547Z,7.03
2016-11-01T07:09:29.107Z,6.99
2016-11-01T07:10:09.652Z,6.99
2016-11-01T07:10:50.193Z,6.97
2016-11-01T07:11:30.715Z,7.02
2016-11-01T07:12:11.239Z,7.09
2016-11-01T07:12:51.776Z,7.03
2016-11-01T07:13:32.320Z,7.06
2016-11-01T07:14:12.853Z,6.97
2016-11-01T07:14:53.400Z,6.99
2016-11-01T07:15:33.952Z,7.02
2016-11-01T07:16:14.488Z,6.97
2016-11-01T07:16:55.029Z,6.99
2016-11-01T07:17:35.604Z,6.97
2016-11-01T07:18:16.239Z,6.99
2016-11-01T07:18:56.867Z,6.98
2016-11-01T07:19:37.387Z,6.97
2016-11-01T07:20:17.923Z,6.97
2016-11-01T07:20:58.460Z,7.03
2016-11-01T07:21:39.002Z,6.98
2016-11-01T07:22:19.538Z,6.95
2016-11-01T07:23:00.069Z,7.03
2016-11-01T07:23:40.584Z,7.05
2016-11-01T07:24:21.159Z,6.89
2016-11-01T07:25:01.688Z,6.98
2016-11-01T07:25:42.226Z,6.98
2016-11-01T07:26:22.848Z,6.97
2016-11-01T07:27:03.376Z,6.97
2016-11-01T07:27:44.216Z,6.92
2016-11-01T07:28:24.750Z,6.98
2016-11-01T07:29:05.289Z,6.94
2016-11-01T07:29:45.968Z,6.95
2016-11-01T07:30:26.461Z,6.95
2016-11-01T07:31:07.024Z,6.95
2016-11-01T07:31:47.564Z,6.98
2016-11-01T07:32:28.095Z,6.97
2016-11-01T07:33:08.639Z,6.97
2016-11-01T07:33:49.212Z,6.92
2016-11-01T07:34:29.937Z,6.92
2016-11-01T07:35:10.484Z,6.95
2016-11-01T07:35:51.012Z,6.97
2016-11-01T07:36:31.561Z,6.98
2016-11-01T07:37:12.221Z,6.92
2016-11-01T07:37:52.766Z,6.98
2016-11-01T07:38:33.327Z,6.99
2016-11-01T07:39:13.873Z,6.91
2016-11-01T07:39:54.440Z,7.03
2016-11-01T07:40:34.952Z,6.97
2016-11-01T07:41:15.726Z,6.97
2016-11-01T07:41:56.253Z,6.98
2016-11-01T07:42:36.799Z,6.99
2016-11-01T07:43:17.340Z,7.09
2016-11-01T07:43:57.881Z,7.05
2016-11-01T07:44:38.545Z,7.06
2016-11-01T07:45:19.001Z,7.09
2016-11-01T07:45:59.538Z,7.07
2016-11-01T07:46:40.084Z,7.12
2016-11-01T07:47:20.606Z,7.07
2016-11-01T07:48:01.138Z,7.06
2016-11-01T07:48:41.677Z,7.09
2016-11-01T07:49:22.259Z,7.1
2016-11-01T07:50:02.792Z,7.15
2016-11-01T07:50:43.331Z,7.15
2016-11-01T07:51:23.872Z,7.21
2016-11-01T07:52:04.407Z,7.17
2016-11-01T07:52:44.955Z,7.23
2016-11-01T07:53:25.506Z,7.17
2016-11-01T07:54:06.040Z,7.23
2016-11-01T07:54:46.569Z,7.17
2016-11-01T07:55:27.263Z,7.15
2016-11-01T07:56:07.807Z,7.23
2016-11-01T07:56:48.328Z,7.16
2016-11-01T07:57:28.869Z,7.17
2016-11-01T07:58:09.401Z,7.13
2016-11-01T07:58:49.938Z,7.3
2016-11-01T07:59:30.485Z,7.2
2016-11-01T08:00:11.052Z,7.21
2016-11-01T08:00:51.606Z,7.15
2016-11-01T08:01:32.141Z,7.2
2016-11-01T08:02:12.673Z,7.2
2016-11-01T08:02:53.219Z,7.17
2016-11-01T08:03:33.748Z,7.3
2016-11-01T08:04:14.655Z,7.32
2016-11-01T08:04:55.699Z,7.24
2016-11-01T08:05:36.547Z,7.25
2016-11-01T08:06:17.072Z,7.28
2016-11-01T08:06:57.589Z,7.31
2016-11-01T08:07:38.290Z,7.23
2016-11-01T08:08:18.829Z,7.27
2016-11-01T08:08:59.343Z,7.15
2016-11-01T08:09:39.878Z,7.24
2016-11-01T08:10:20.416Z,7.21
2016-11-01T08:11:00.931Z,7.31
2016-11-01T08:11:41.452Z,7.3
2016-11-01T08:12:21.998Z,7.32
2016-11-01T08:13:02.549Z,7.35
2016-11-01T08:13:43.065Z,7.3
2016-11-01T08:14:23.581Z,7.3
2016-11-01T08:15:04.109Z,7.37
2016-11-01T08:15:44.638Z,7.42
2016-11-01T08:16:25.182Z,7.43
2016-11-01T08:17:05.734Z,7.3
2016-11-01T08:17:46.256Z,7.3
2016-11-01T08:18:26.803Z,7.3
2016-11-01T08:19:07.328Z,7.37
2016-11-01T08:19:47.837Z,7.31
2016-11-01T08:20:28.365Z,7.43
2016-11-01T08:21:08.879Z,7.43
2016-11-01T08:21:49.388Z,7.46
2016-11-01T08:22:29.905Z,7.46
2016-11-01T08:23:10.449Z,7.4
2016-11-01T08:23:50.991Z,7.4
2016-11-01T08:24:31.508Z,7.43
2016-11-01T08:25:12.019Z,7.43
2016-11-01T08:25:52.531Z,7.37
2016-11-01T08:26:33.067Z,7.37
2016-11-01T08:27:13.596Z,7.42
2016-11-01T08:27:54.127Z,7.48
2016-11-01T08:28:34.672Z,7.46
2016-11-01T08:29:15.215Z,7.48
2016-11-01T08:29:55.756Z,7.43
2016-11-01T08:30:36.273Z,7.5
2016-11-01T08:31:16.816Z,7.46
2016-11-01T08:31:57.336Z,7.34
2016-11-01T08:32:37.869Z,7.4
2016-11-01T08:33:18.393Z,7.46
2016-11-01T08:33:58.922Z,7.42
2016-11-01T08:34:39.451Z,7.39
2016-11-01T08:35:19.978Z,7.55
2016-11-01T08:36:00.516Z,7.45
2016-11-01T08:36:41.042Z,7.52
2016-11-01T08:37:21.574Z,7.53
2016-11-01T08:38:02.116Z,7.45
2016-11-01T08:38:42.642Z,7.49
2016-11-01T08:39:23.196Z,7.53
2016-11-01T08:40:03.736Z,7.52
2016-11-01T08:40:44.283Z,7.46
2016-11-01T08:41:24.829Z,7.4
2016-11-01T08:42:05.360Z,7.52
2016-11-01T08:42:45.887Z,7.5
2016-11-01T08:43:26.412Z,7.5
2016-11-01T08:44:06.931Z,7.52
2016-11-01T08:44:47.461Z,7.5
2016-11-01T08:45:28.005Z,7.46
2016-11-01T08:46:08.522Z,7.55
2016-11-01T08:46:49.066Z,7.52
2016-11-01T08:47:29.607Z,7.5
2016-11-01T08:48:10.145Z,7.64
2016-11-01T08:48:50.662Z,7.67
2016-11-01T08:49:31.197Z,7.74
2016-11-01T08:50:11.724Z,7.69
2016-11-01T08:50:52.265Z,7.74
2016-11-01T08:51:32.810Z,7.79
2016-11-01T08:52:13.349Z,7.85
2016-11-01T08:52:53.883Z,7.86
2016-11-01T08:53:34.421Z,7.95
2016-11-01T08:54:14.956Z,7.92
2016-11-01T08:54:55.496Z,7.97
2016-11-01T08:55:36.029Z,8.15
2016-11-01T08:56:16.573Z,8.28
2016-11-01T08:56:57.110Z,8.38
2016-11-01T08:57:37.652Z,8.48
2016-11-01T08:58:18.175Z,8.52
2016-11-01T08:58:58.714Z,8.61
2016-11-01T08:59:39.250Z,8.61
2016-11-01T09:00:19.792Z,8.71
2016-11-01T09:01:00.327Z,8.66
2016-11-01T09:01:40.861Z,8.8
2016-11-01T09:02:21.404Z,8.92
2016-11-01T09:03:01.933Z,8.86
2016-11-01T09:03:42.476Z,8.71
2016-11-01T09:04:23.007Z,8.84
2016-11-01T09:05:03.538Z,8.87
2016-11-01T09:05:44.077Z,8.91
2016-11-01T09:06:24.615Z,9.02
2016-11-01T09:07:05.165Z,9.13
2016-11-01T09:07:45.754Z,9.35
2016-11-01T09:08:26.293Z,9.47
2016-11-01T09:09:06.857Z,9.61
2016-11-01T09:09:47.414Z,9.65
2016-11-01T09:10:27.979Z,9.83
2016-11-01T09:11:08.508Z,9.79
2016-11-01T09:11:49.094Z,9.87
2016-11-01T09:12:29.629Z,9.91
2016-11-01T09:13:10.160Z,9.94
2016-11-01T09:13:50.707Z,9.9
2016-11-01T09:14:31.241Z,9.9
2016-11-01T09:15:11.776Z,10.04
2016-11-01T09:15:52.321Z,10.07
2016-11-01T09:16:32.880Z,10.07
2016-11-01T09:17:13.433Z,10.09
2016-11-01T09:17:53.987Z,10.04
2016-11-01T09:18:34.519Z,10.08
2016-11-01T09:19:15.053Z,10.05
2016-11-01T09:19:55.618Z,10.04
2016-11-01T09:20:36.155Z,10.05
2016-11-01T09:21:16.688Z,10.01
2016-11-01T09:21:57.228Z,10.04
2016-11-01T09:22:37.760Z,10.01
2016-11-01T09:23:18.305Z,10.05
2016-11-01T09:23:58.850Z,10.07
2016-11-01T09:24:39.409Z,10.2
2016-11-01T09:25:19.953Z,10.3
2016-11-01T09:26:00.501Z,10.4
2016-11-01T09:26:41.102Z,10.41
2016-11-01T09:27:21.716Z,10.38
2016-11-01T09:28:02.293Z,10.48
2016-11-01T09:28:42.842Z,10.6
2016-11-01T09:29:23.373Z,10.68
2016-11-01T09:30:03.919Z,10.79
2016-11-01T09:30:44.469Z,10.73
2016-11-01T09:31:25.031Z,10.81
2016-11-01T09:32:05.639Z,10.84
2016-11-01T09:32:46.184Z,10.92
2016-11-01T09:33:26.737Z,10.99
2016-11-01T09:34:07.288Z,11
2016-11-01T09:34:47.839Z,11.02
2016-11-01T09:35:28.388Z,10.96
2016-11-01T09:36:09.027Z,10.82
2016-11-01T09:36:49.570Z,10.89
2016-11-01T09:37:30.102Z,10.89
2016-11-01T09:38:10.646Z,10.89
2016-11-01T09:38:51.504Z,10.82
2016-11-01T09:39:33.177Z,10.94
2016-11-01T09:40:13.727Z,11.06
2016-11-01T09:40:54.254Z,11.06
2016-11-01T09:41:34.809Z,11.07